sensor_id;sensor_type;location;lat;lon;timestamp;pressure;altitude;pressure_sealevel;temperature;humidity
85511;BME280;75921;51.616;11.880;2024-02-04T00:01:07;100393.81;;;7.05;88.48
85511;BME280;75921;51.616;11.880;2024-02-04T00:03:32;100381.63;;;7.10;88.45
85511;BME280;75921;51.616;11.880;2024-02-04T00:05:58;100365.56;;;7.01;88.89
85511;BME280;75921;51.616;11.880;2024-02-04T00:08:23;100349.22;;;6.94;88.99
85511;BME280;75921;51.616;11.880;2024-02-04T00:10:48;100348.69;;;6.90;87.96
85511;BME280;75921;51.616;11.880;2024-02-04T00:13:13;100347.22;;;6.96;88.99
85511;BME280;75921;51.616;11.880;2024-02-04T00:15:38;100351.03;;;7.03;88.67
85511;BME280;75921;51.616;11.880;2024-02-04T00:18:04;100342.56;;;6.98;89.96
85511;BME280;75921;51.616;11.880;2024-02-04T00:20:29;100348.94;;;6.97;90.74
85511;BME280;75921;51.616;11.880;2024-02-04T00:22:57;100335.56;;;7.05;90.28
85511;BME280;75921;51.616;11.880;2024-02-04T00:25:22;100328.00;;;7.18;89.90
85511;BME280;75921;51.616;11.880;2024-02-04T00:27:48;100326.91;;;7.11;91.00
85511;BME280;75921;51.616;11.880;2024-02-04T00:30:14;100330.19;;;7.05;90.72
85511;BME280;75921;51.616;11.880;2024-02-04T00:32:39;100342.13;;;7.03;90.69
85511;BME280;75921;51.616;11.880;2024-02-04T00:35:04;100344.63;;;7.04;91.14
85511;BME280;75921;51.616;11.880;2024-02-04T00:37:29;100343.25;;;7.00;91.40
85511;BME280;75921;51.616;11.880;2024-02-04T00:39:55;100358.97;;;6.95;91.38
85511;BME280;75921;51.616;11.880;2024-02-04T00:42:21;100357.97;;;6.96;91.68
85511;BME280;75921;51.616;11.880;2024-02-04T00:44:46;100355.88;;;6.90;92.17
85511;BME280;75921;51.616;11.880;2024-02-04T00:47:11;100367.19;;;6.93;92.36
85511;BME280;75921;51.616;11.880;2024-02-04T00:49:38;100362.09;;;6.90;92.83
85511;BME280;75921;51.616;11.880;2024-02-04T00:52:03;100358.88;;;6.87;93.03
85511;BME280;75921;51.616;11.880;2024-02-04T00:54:29;100346.59;;;6.84;93.22
85511;BME280;75921;51.616;11.880;2024-02-04T00:56:54;100360.72;;;6.86;93.56
85511;BME280;75921;51.616;11.880;2024-02-04T00:59:20;100363.25;;;6.88;93.28
85511;BME280;75921;51.616;11.880;2024-02-04T01:01:45;100353.13;;;7.00;92.19
85511;BME280;75921;51.616;11.880;2024-02-04T01:04:10;100357.84;;;6.97;92.70
85511;BME280;75921;51.616;11.880;2024-02-04T01:06:37;100345.72;;;6.93;92.07
85511;BME280;75921;51.616;11.880;2024-02-04T01:09:02;100354.59;;;6.94;91.52
85511;BME280;75921;51.616;11.880;2024-02-04T01:11:28;100346.53;;;6.94;92.13
85511;BME280;75921;51.616;11.880;2024-02-04T01:13:54;100350.22;;;6.93;91.69
85511;BME280;75921;51.616;11.880;2024-02-04T01:16:19;100343.16;;;6.92;91.52
85511;BME280;75921;51.616;11.880;2024-02-04T01:18:45;100352.91;;;6.93;92.10
85511;BME280;75921;51.616;11.880;2024-02-04T01:21:10;100366.09;;;6.86;92.96
85511;BME280;75921;51.616;11.880;2024-02-04T01:23:35;100346.44;;;6.86;92.24
85511;BME280;75921;51.616;11.880;2024-02-04T01:26:00;100363.16;;;6.80;94.14
85511;BME280;75921;51.616;11.880;2024-02-04T01:28:26;100361.56;;;6.87;91.37
85511;BME280;75921;51.616;11.880;2024-02-04T01:30:51;100357.97;;;6.96;90.26
85511;BME280;75921;51.616;11.880;2024-02-04T01:33:16;100357.44;;;6.92;91.57
85511;BME280;75921;51.616;11.880;2024-02-04T01:35:41;100344.47;;;6.88;91.51
85511;BME280;75921;51.616;11.880;2024-02-04T01:38:07;100350.50;;;6.90;91.32
85511;BME280;75921;51.616;11.880;2024-02-04T01:40:32;100349.84;;;6.88;92.23
85511;BME280;75921;51.616;11.880;2024-02-04T01:42:58;100356.06;;;6.88;92.37
85511;BME280;75921;51.616;11.880;2024-02-04T01:45:23;100363.72;;;6.83;91.26
85511;BME280;75921;51.616;11.880;2024-02-04T01:47:49;100352.97;;;6.83;91.49
85511;BME280;75921;51.616;11.880;2024-02-04T01:50:15;100353.44;;;6.79;94.07
85511;BME280;75921;51.616;11.880;2024-02-04T01:52:42;100358.53;;;6.72;94.89
85511;BME280;75921;51.616;11.880;2024-02-04T01:55:08;100346.41;;;6.68;95.04
85511;BME280;75921;51.616;11.880;2024-02-04T01:57:34;100343.56;;;6.70;93.75
85511;BME280;75921;51.616;11.880;2024-02-04T02:00:03;100337.66;;;6.66;95.55
85511;BME280;75921;51.616;11.880;2024-02-04T02:02:30;100337.59;;;6.76;92.49
85511;BME280;75921;51.616;11.880;2024-02-04T02:04:56;100338.00;;;6.81;93.96
85511;BME280;75921;51.616;11.880;2024-02-04T02:07:23;100330.41;;;6.76;93.50
85511;BME280;75921;51.616;11.880;2024-02-04T02:09:52;100320.25;;;6.70;94.92
85511;BME280;75921;51.616;11.880;2024-02-04T02:12:22;100331.97;;;6.79;92.01
85511;BME280;75921;51.616;11.880;2024-02-04T02:14:56;100328.97;;;6.82;92.56
85511;BME280;75921;51.616;11.880;2024-02-04T02:17:31;100330.84;;;6.72;95.04
85511;BME280;75921;51.616;11.880;2024-02-04T02:20:12;100331.31;;;6.67;95.02
85511;BME280;75921;51.616;11.880;2024-02-04T02:23:22;100339.75;;;6.72;93.02
85511;BME280;75921;51.616;11.880;2024-02-04T02:25:49;100317.28;;;6.73;93.00
85511;BME280;75921;51.616;11.880;2024-02-04T02:28:15;100333.13;;;6.67;93.95
85511;BME280;75921;51.616;11.880;2024-02-04T02:30:40;100336.63;;;6.77;92.56
85511;BME280;75921;51.616;11.880;2024-02-04T02:33:06;100332.53;;;6.45;95.56
85511;BME280;75921;51.616;11.880;2024-02-04T02:35:33;100320.28;;;6.43;95.50
85511;BME280;75921;51.616;11.880;2024-02-04T02:38:31;100323.34;;;6.48;95.25
85511;BME280;75921;51.616;11.880;2024-02-04T02:40:59;100318.72;;;6.40;95.95
85511;BME280;75921;51.616;11.880;2024-02-04T02:43:27;100306.84;;;6.43;95.08
85511;BME280;75921;51.616;11.880;2024-02-04T02:45:54;100329.84;;;6.45;95.69
85511;BME280;75921;51.616;11.880;2024-02-04T02:48:19;100320.13;;;6.44;95.83
85511;BME280;75921;51.616;11.880;2024-02-04T02:50:44;100327.16;;;6.45;95.15
85511;BME280;75921;51.616;11.880;2024-02-04T02:53:10;100316.28;;;6.47;95.39
85511;BME280;75921;51.616;11.880;2024-02-04T02:55:35;100311.91;;;6.46;95.09
85511;BME280;75921;51.616;11.880;2024-02-04T02:58:01;100319.28;;;6.44;95.50
85511;BME280;75921;51.616;11.880;2024-02-04T03:00:26;100310.13;;;6.37;95.95
85511;BME280;75921;51.616;11.880;2024-02-04T03:02:51;100310.84;;;6.39;96.54
85511;BME280;75921;51.616;11.880;2024-02-04T03:05:16;100312.53;;;6.40;95.70
85511;BME280;75921;51.616;11.880;2024-02-04T03:07:42;100297.81;;;6.44;96.04
85511;BME280;75921;51.616;11.880;2024-02-04T03:10:08;100287.69;;;6.38;95.92
85511;BME280;75921;51.616;11.880;2024-02-04T03:12:33;100289.38;;;6.39;95.25
85511;BME280;75921;51.616;11.880;2024-02-04T03:14:58;100288.44;;;6.30;96.09
85511;BME280;75921;51.616;11.880;2024-02-04T03:17:24;100285.44;;;6.33;96.40
85511;BME280;75921;51.616;11.880;2024-02-04T03:19:49;100295.38;;;6.23;96.33
85511;BME280;75921;51.616;11.880;2024-02-04T03:22:17;100291.53;;;6.26;96.65
85511;BME280;75921;51.616;11.880;2024-02-04T03:24:42;100284.06;;;6.29;96.72
85511;BME280;75921;51.616;11.880;2024-02-04T03:27:07;100288.56;;;6.29;96.35
85511;BME280;75921;51.616;11.880;2024-02-04T03:29:32;100275.31;;;6.27;96.10
85511;BME280;75921;51.616;11.880;2024-02-04T03:31:58;100280.00;;;6.25;95.85
85511;BME280;75921;51.616;11.880;2024-02-04T03:34:23;100268.41;;;6.25;95.96
85511;BME280;75921;51.616;11.880;2024-02-04T03:36:49;100265.69;;;6.34;94.74
85511;BME280;75921;51.616;11.880;2024-02-04T03:39:14;100277.44;;;6.24;96.44
85511;BME280;75921;51.616;11.880;2024-02-04T03:41:39;100268.25;;;6.26;96.16
85511;BME280;75921;51.616;11.880;2024-02-04T03:44:04;100283.25;;;6.19;96.54
85511;BME280;75921;51.616;11.880;2024-02-04T03:46:30;100280.41;;;6.21;95.98
85511;BME280;75921;51.616;11.880;2024-02-04T03:48:56;100285.22;;;6.17;96.11
85511;BME280;75921;51.616;11.880;2024-02-04T03:51:21;100280.97;;;6.24;96.01
85511;BME280;75921;51.616;11.880;2024-02-04T03:53:47;100284.75;;;6.31;94.77
85511;BME280;75921;51.616;11.880;2024-02-04T03:56:13;100293.09;;;6.28;96.09
85511;BME280;75921;51.616;11.880;2024-02-04T03:58:38;100275.31;;;6.27;95.91
85511;BME280;75921;51.616;11.880;2024-02-04T04:01:03;100283.50;;;6.26;96.21
85511;BME280;75921;51.616;11.880;2024-02-04T04:03:29;100280.00;;;6.25;95.56
85511;BME280;75921;51.616;11.880;2024-02-04T04:05:54;100281.53;;;6.28;96.16
85511;BME280;75921;51.616;11.880;2024-02-04T04:08:19;100283.22;;;6.29;95.59
85511;BME280;75921;51.616;11.880;2024-02-04T04:10:45;100277.09;;;6.36;95.61
85511;BME280;75921;51.616;11.880;2024-02-04T04:13:10;100287.13;;;6.34;95.62
85511;BME280;75921;51.616;11.880;2024-02-04T04:15:36;100288.81;;;6.35;95.88
85511;BME280;75921;51.616;11.880;2024-02-04T04:18:02;100287.28;;;6.33;96.14
85511;BME280;75921;51.616;11.880;2024-02-04T04:20:27;100285.44;;;6.33;95.50
85511;BME280;75921;51.616;11.880;2024-02-04T04:22:52;100269.44;;;6.41;94.65
85511;BME280;75921;51.616;11.880;2024-02-04T04:25:17;100270.69;;;6.47;92.85
85511;BME280;75921;51.616;11.880;2024-02-04T04:27:43;100273.63;;;6.53;92.87
85511;BME280;75921;51.616;11.880;2024-02-04T04:30:09;100277.44;;;6.51;94.33
85511;BME280;75921;51.616;11.880;2024-02-04T04:32:35;100270.00;;;6.45;94.43
85511;BME280;75921;51.616;11.880;2024-02-04T04:35:00;100266.31;;;6.46;95.45
85511;BME280;75921;51.616;11.880;2024-02-04T04:37:25;100262.78;;;6.45;95.32
85511;BME280;75921;51.616;11.880;2024-02-04T04:39:51;100266.47;;;6.44;95.43
85511;BME280;75921;51.616;11.880;2024-02-04T04:42:16;100269.44;;;6.41;96.12
85511;BME280;75921;51.616;11.880;2024-02-04T04:44:41;100251.22;;;6.45;96.02
85511;BME280;75921;51.616;11.880;2024-02-04T04:47:06;100243.41;;;6.51;95.69
85511;BME280;75921;51.616;11.880;2024-02-04T04:49:32;100243.78;;;6.57;95.64
85511;BME280;75921;51.616;11.880;2024-02-04T04:51:57;100243.66;;;6.58;95.87
85511;BME280;75921;51.616;11.880;2024-02-04T04:54:22;100239.97;;;6.59;95.94
85511;BME280;75921;51.616;11.880;2024-02-04T04:56:48;100229.91;;;6.61;96.27
85511;BME280;75921;51.616;11.880;2024-02-04T04:59:14;100233.06;;;6.57;96.33
85511;BME280;75921;51.616;11.880;2024-02-04T05:01:47;100216.94;;;6.57;96.77
85511;BME280;75921;51.616;11.880;2024-02-04T05:04:12;100221.78;;;6.53;96.84
85511;BME280;75921;51.616;11.880;2024-02-04T05:06:38;100225.00;;;6.57;96.17
85511;BME280;75921;51.616;11.880;2024-02-04T05:09:03;100211.06;;;6.53;96.90
85511;BME280;75921;51.616;11.880;2024-02-04T05:11:28;100226.84;;;6.56;96.77
85511;BME280;75921;51.616;11.880;2024-02-04T05:13:53;100228.38;;;6.59;96.57
85511;BME280;75921;51.616;11.880;2024-02-04T05:16:19;100213.28;;;6.58;96.03
85511;BME280;75921;51.616;11.880;2024-02-04T05:18:44;100209.75;;;6.57;96.59
85511;BME280;75921;51.616;11.880;2024-02-04T05:21:10;100201.84;;;6.56;97.20
85511;BME280;75921;51.616;11.880;2024-02-04T05:23:36;100185.91;;;6.54;96.50
85511;BME280;75921;51.616;11.880;2024-02-04T05:26:03;100197.19;;;6.58;96.62
85511;BME280;75921;51.616;11.880;2024-02-04T05:28:28;100185.28;;;6.60;96.06
85511;BME280;75921;51.616;11.880;2024-02-04T05:30:54;100181.06;;;6.58;96.38
85511;BME280;75921;51.616;11.880;2024-02-04T05:33:19;100181.91;;;6.58;96.63
85511;BME280;75921;51.616;11.880;2024-02-04T05:35:44;100179.09;;;6.60;96.12
85511;BME280;75921;51.616;11.880;2024-02-04T05:38:09;100177.00;;;6.53;96.01
85511;BME280;75921;51.616;11.880;2024-02-04T05:40:35;100171.25;;;6.48;96.39
85511;BME280;75921;51.616;11.880;2024-02-04T05:43:00;100166.19;;;6.45;96.34
85511;BME280;75921;51.616;11.880;2024-02-04T05:45:31;100165.91;;;6.48;96.86
85511;BME280;75921;51.616;11.880;2024-02-04T05:47:56;100161.38;;;6.49;97.11
85511;BME280;75921;51.616;11.880;2024-02-04T05:50:21;100160.81;;;6.45;97.41
85511;BME280;75921;51.616;11.880;2024-02-04T05:52:46;100163.03;;;6.50;96.83
85511;BME280;75921;51.616;11.880;2024-02-04T05:55:11;100166.94;;;6.56;96.73
85511;BME280;75921;51.616;11.880;2024-02-04T05:57:37;100162.66;;;6.63;96.81
85511;BME280;75921;51.616;11.880;2024-02-04T06:00:03;100164.97;;;6.58;96.63
85511;BME280;75921;51.616;11.880;2024-02-04T06:02:28;100163.28;;;6.57;96.93
85511;BME280;75921;51.616;11.880;2024-02-04T06:04:54;100155.22;;;6.57;97.35
85511;BME280;75921;51.616;11.880;2024-02-04T06:07:19;100149.72;;;6.58;97.20
85511;BME280;75921;51.616;11.880;2024-02-04T06:09:45;100143.88;;;6.63;96.76
85511;BME280;75921;51.616;11.880;2024-02-04T06:12:10;100130.94;;;6.58;96.78
85511;BME280;75921;51.616;11.880;2024-02-04T06:14:35;100137.16;;;6.59;96.74
85511;BME280;75921;51.616;11.880;2024-02-04T06:17:04;100139.97;;;6.57;97.29
85511;BME280;75921;51.616;11.880;2024-02-04T06:19:30;100148.56;;;6.61;97.34
85511;BME280;75921;51.616;11.880;2024-02-04T06:21:55;100144.72;;;6.63;97.27
85511;BME280;75921;51.616;11.880;2024-02-04T06:24:20;100145.97;;;6.69;97.34
85511;BME280;75921;51.616;11.880;2024-02-04T06:26:45;100147.94;;;6.67;96.62
85511;BME280;75921;51.616;11.880;2024-02-04T06:29:11;100161.75;;;6.72;96.53
85511;BME280;75921;51.616;11.880;2024-02-04T06:31:36;100151.72;;;6.74;97.00
85511;BME280;75921;51.616;11.880;2024-02-04T06:34:01;100150.22;;;6.79;96.68
85511;BME280;75921;51.616;11.880;2024-02-04T06:36:26;100156.81;;;6.85;96.13
85511;BME280;75921;51.616;11.880;2024-02-04T06:38:52;100165.56;;;6.87;96.60
85511;BME280;75921;51.616;11.880;2024-02-04T06:41:17;100163.59;;;6.89;96.72
85511;BME280;75921;51.616;11.880;2024-02-04T06:43:42;100175.97;;;6.90;96.21
85511;BME280;75921;51.616;11.880;2024-02-04T06:46:07;100173.31;;;6.90;96.24
85511;BME280;75921;51.616;11.880;2024-02-04T06:48:33;100219.88;;;6.81;94.70
85511;BME280;75921;51.616;11.880;2024-02-04T06:50:58;100206.91;;;6.76;94.23
85511;BME280;75921;51.616;11.880;2024-02-04T06:53:23;100199.00;;;6.75;93.42
85511;BME280;75921;51.616;11.880;2024-02-04T06:55:48;100190.47;;;6.79;94.58
85511;BME280;75921;51.616;11.880;2024-02-04T06:58:14;100176.31;;;6.87;95.08
85511;BME280;75921;51.616;11.880;2024-02-04T07:00:39;100181.28;;;6.82;94.15
85511;BME280;75921;51.616;11.880;2024-02-04T07:03:04;100180.75;;;6.96;93.64
85511;BME280;75921;51.616;11.880;2024-02-04T07:05:29;100188.75;;;6.88;92.66
85511;BME280;75921;51.616;11.880;2024-02-04T07:07:56;100178.75;;;6.98;92.06
85511;BME280;75921;51.616;11.880;2024-02-04T07:10:21;100174.00;;;6.92;92.34
85511;BME280;75921;51.616;11.880;2024-02-04T07:12:46;100174.75;;;7.02;91.53
85511;BME280;75921;51.616;11.880;2024-02-04T07:15:11;100171.69;;;6.97;91.56
85511;BME280;75921;51.616;11.880;2024-02-04T07:17:37;100168.63;;;6.92;91.62
85511;BME280;75921;51.616;11.880;2024-02-04T07:20:02;100164.25;;;6.91;91.92
85511;BME280;75921;51.616;11.880;2024-02-04T07:22:28;100157.88;;;6.92;91.80
85511;BME280;75921;51.616;11.880;2024-02-04T07:24:53;100167.47;;;6.94;91.17
85511;BME280;75921;51.616;11.880;2024-02-04T07:27:18;100169.31;;;6.94;91.27
85511;BME280;75921;51.616;11.880;2024-02-04T07:29:45;100166.78;;;6.92;90.84
85511;BME280;75921;51.616;11.880;2024-02-04T07:32:12;100166.75;;;7.10;91.00
85511;BME280;75921;51.616;11.880;2024-02-04T07:34:37;100141.38;;;7.30;88.05
85511;BME280;75921;51.616;11.880;2024-02-04T07:37:02;100135.88;;;7.40;87.57
85511;BME280;75921;51.616;11.880;2024-02-04T07:39:27;100142.53;;;7.28;88.99
85511;BME280;75921;51.616;11.880;2024-02-04T07:41:53;100139.69;;;7.29;89.42
85511;BME280;75921;51.616;11.880;2024-02-04T07:44:19;100137.06;;;7.37;88.25
85511;BME280;75921;51.616;11.880;2024-02-04T07:46:44;100145.06;;;7.29;89.35
85511;BME280;75921;51.616;11.880;2024-02-04T07:49:09;100138.31;;;7.25;90.21
85511;BME280;75921;51.616;11.880;2024-02-04T07:51:35;100141.16;;;7.24;90.59
85511;BME280;75921;51.616;11.880;2024-02-04T07:54:01;100136.94;;;7.21;91.48
85511;BME280;75921;51.616;11.880;2024-02-04T07:56:26;100144.63;;;7.16;92.31
85511;BME280;75921;51.616;11.880;2024-02-04T07:58:51;100150.22;;;7.23;91.82
85511;BME280;75921;51.616;11.880;2024-02-04T08:01:18;100135.28;;;7.28;92.02
85511;BME280;75921;51.616;11.880;2024-02-04T08:03:43;100135.66;;;7.33;91.92
85511;BME280;75921;51.616;11.880;2024-02-04T08:06:08;100123.41;;;7.31;92.05
85511;BME280;75921;51.616;11.880;2024-02-04T08:08:33;100119.75;;;7.40;92.52
85511;BME280;75921;51.616;11.880;2024-02-04T08:10:59;100124.28;;;7.39;93.50
85511;BME280;75921;51.616;11.880;2024-02-04T08:13:24;100128.09;;;7.29;94.24
85511;BME280;75921;51.616;11.880;2024-02-04T08:15:49;100125.56;;;7.27;94.54
85511;BME280;75921;51.616;11.880;2024-02-04T08:18:14;100121.72;;;7.30;93.86
85511;BME280;75921;51.616;11.880;2024-02-04T08:20:40;100129.16;;;7.36;93.42
85511;BME280;75921;51.616;11.880;2024-02-04T08:23:05;100117.44;;;7.45;92.78
85511;BME280;75921;51.616;11.880;2024-02-04T08:25:30;100109.88;;;7.49;92.40
85511;BME280;75921;51.616;11.880;2024-02-04T08:27:55;100111.25;;;7.53;91.47
85511;BME280;75921;51.616;11.880;2024-02-04T08:30:21;100106.06;;;7.51;90.68
85511;BME280;75921;51.616;11.880;2024-02-04T08:32:46;100119.66;;;7.58;90.27
85511;BME280;75921;51.616;11.880;2024-02-04T08:35:11;100128.91;;;7.55;89.97
85511;BME280;75921;51.616;11.880;2024-02-04T08:37:36;100137.97;;;7.54;90.93
85511;BME280;75921;51.616;11.880;2024-02-04T08:40:04;100133.78;;;7.52;91.09
85511;BME280;75921;51.616;11.880;2024-02-04T08:42:30;100136.63;;;7.50;91.09
85511;BME280;75921;51.616;11.880;2024-02-04T08:44:55;100149.06;;;7.51;91.00
85511;BME280;75921;51.616;11.880;2024-02-04T08:47:21;100149.91;;;7.52;90.98
85511;BME280;75921;51.616;11.880;2024-02-04T08:49:46;100135.09;;;7.48;91.40
85511;BME280;75921;51.616;11.880;2024-02-04T08:52:11;100142.00;;;7.50;91.21
85511;BME280;75921;51.616;11.880;2024-02-04T08:54:36;100136.63;;;7.50;91.58
85511;BME280;75921;51.616;11.880;2024-02-04T08:57:02;100131.44;;;7.57;90.38
85511;BME280;75921;51.616;11.880;2024-02-04T08:59:27;100135.13;;;7.56;90.33
85511;BME280;75921;51.616;11.880;2024-02-04T09:01:52;100129.75;;;7.56;90.70
85511;BME280;75921;51.616;11.880;2024-02-04T09:04:17;100119.00;;;7.56;90.14
85511;BME280;75921;51.616;11.880;2024-02-04T09:06:43;100123.75;;;7.62;89.13
85511;BME280;75921;51.616;11.880;2024-02-04T09:09:08;100124.13;;;7.75;87.63
85511;BME280;75921;51.616;11.880;2024-02-04T09:11:34;100122.94;;;7.77;86.77
85511;BME280;75921;51.616;11.880;2024-02-04T09:14:00;100132.31;;;7.65;87.91
85511;BME280;75921;51.616;11.880;2024-02-04T09:16:25;100128.88;;;7.81;85.63
85511;BME280;75921;51.616;11.880;2024-02-04T09:18:50;100117.78;;;7.84;84.87
85511;BME280;75921;51.616;11.880;2024-02-04T09:21:15;100104.03;;;7.95;83.41
85511;BME280;75921;51.616;11.880;2024-02-04T09:23:41;100097.66;;;8.04;82.18
85511;BME280;75921;51.616;11.880;2024-02-04T09:26:06;100098.47;;;7.97;83.04
85511;BME280;75921;51.616;11.880;2024-02-04T09:28:31;100102.34;;;8.02;83.04
85511;BME280;75921;51.616;11.880;2024-02-04T09:30:57;100090.94;;;8.00;83.07
85511;BME280;75921;51.616;11.880;2024-02-04T09:33:22;100091.59;;;7.94;84.21
85511;BME280;75921;51.616;11.880;2024-02-04T09:35:47;100096.63;;;7.97;84.38
85511;BME280;75921;51.616;11.880;2024-02-04T09:38:14;100105.25;;;8.09;84.70
85511;BME280;75921;51.616;11.880;2024-02-04T09:40:39;100103.69;;;7.98;86.57
85511;BME280;75921;51.616;11.880;2024-02-04T09:43:05;100093.59;;;7.92;87.53
85511;BME280;75921;51.616;11.880;2024-02-04T09:45:30;100097.81;;;7.95;87.88
85511;BME280;75921;51.616;11.880;2024-02-04T09:47:56;100102.16;;;7.88;88.59
85511;BME280;75921;51.616;11.880;2024-02-04T09:50:21;100105.31;;;7.83;89.17
85511;BME280;75921;51.616;11.880;2024-02-04T09:52:49;100101.97;;;7.81;89.76
85511;BME280;75921;51.616;11.880;2024-02-04T09:55:15;100092.72;;;7.83;89.17
85511;BME280;75921;51.616;11.880;2024-02-04T09:57:41;100092.25;;;7.88;88.60
85511;BME280;75921;51.616;11.880;2024-02-04T10:00:07;100080.47;;;7.81;88.91
85511;BME280;75921;51.616;11.880;2024-02-04T10:02:33;100081.81;;;7.85;88.30
85511;BME280;75921;51.616;11.880;2024-02-04T10:04:59;100081.47;;;7.88;88.59
85511;BME280;75921;51.616;11.880;2024-02-04T10:07:24;100074.44;;;7.95;86.52
85511;BME280;75921;51.616;11.880;2024-02-04T10:09:50;100073.47;;;8.04;85.25
85511;BME280;75921;51.616;11.880;2024-02-04T10:12:16;100079.34;;;8.08;84.92
85511;BME280;75921;51.616;11.880;2024-02-04T10:14:42;100076.50;;;8.09;84.53
85511;BME280;75921;51.616;11.880;2024-02-04T10:17:07;100083.19;;;7.97;86.06
85511;BME280;75921;51.616;11.880;2024-02-04T10:19:32;100084.22;;;8.04;85.47
85511;BME280;75921;51.616;11.880;2024-02-04T10:22:02;100088.59;;;8.05;85.72
85511;BME280;75921;51.616;11.880;2024-02-04T10:24:28;100081.53;;;8.04;85.50
85511;BME280;75921;51.616;11.880;2024-02-04T10:26:56;100070.75;;;7.96;86.43
85511;BME280;75921;51.616;11.880;2024-02-04T10:29:25;100078.34;;;8.01;86.23
85511;BME280;75921;51.616;11.880;2024-02-04T10:31:54;100069.09;;;8.03;86.33
85511;BME280;75921;51.616;11.880;2024-02-04T10:34:20;100080.19;;;8.00;86.44
85511;BME280;75921;51.616;11.880;2024-02-04T10:36:45;100069.53;;;7.82;87.60
85511;BME280;75921;51.616;11.880;2024-02-04T10:39:10;100078.00;;;7.96;87.17
85511;BME280;75921;51.616;11.880;2024-02-04T10:41:39;100079.78;;;7.87;87.82
85511;BME280;75921;51.616;11.880;2024-02-04T10:44:07;100082.81;;;7.84;88.60
85511;BME280;75921;51.616;11.880;2024-02-04T10:46:35;100086.81;;;7.72;89.32
85511;BME280;75921;51.616;11.880;2024-02-04T10:49:03;100094.91;;;7.72;90.08
85511;BME280;75921;51.616;11.880;2024-02-04T10:51:33;100096.81;;;7.54;89.17
85511;BME280;75921;51.616;11.880;2024-02-04T10:54:02;100098.25;;;7.40;89.53
85511;BME280;75921;51.616;11.880;2024-02-04T10:56:42;100098.91;;;7.34;89.65
85511;BME280;75921;51.616;11.880;2024-02-04T10:59:10;100100.38;;;7.28;89.87
85511;BME280;75921;51.616;11.880;2024-02-04T11:01:38;100096.19;;;7.26;89.39
85511;BME280;75921;51.616;11.880;2024-02-04T11:04:03;100095.31;;;7.25;90.05
85511;BME280;75921;51.616;11.880;2024-02-04T11:06:30;100103.38;;;7.25;90.39
85511;BME280;75921;51.616;11.880;2024-02-04T11:08:56;100092.13;;;7.22;90.79
85511;BME280;75921;51.616;11.880;2024-02-04T11:11:23;100093.13;;;7.21;90.66
85511;BME280;75921;51.616;11.880;2024-02-04T11:13:53;100087.75;;;7.21;91.42
85511;BME280;75921;51.616;11.880;2024-02-04T11:24:37;100076.00;;;7.22;92.31
85511;BME280;75921;51.616;11.880;2024-02-04T11:27:08;100081.53;;;7.20;92.73
85511;BME280;75921;51.616;11.880;2024-02-04T11:29:34;100078.19;;;7.18;91.47
85511;BME280;75921;51.616;11.880;2024-02-04T11:32:01;100077.00;;;7.21;93.10
85511;BME280;75921;51.616;11.880;2024-02-04T11:34:27;100059.03;;;7.21;92.67
85511;BME280;75921;51.616;11.880;2024-02-04T11:36:52;100069.47;;;7.24;92.91
85511;BME280;75921;51.616;11.880;2024-02-04T11:39:18;100057.38;;;7.28;92.76
85511;BME280;75921;51.616;11.880;2024-02-04T11:41:48;100068.97;;;7.29;91.88
85511;BME280;75921;51.616;11.880;2024-02-04T11:44:26;100049.19;;;7.38;89.76
85511;BME280;75921;51.616;11.880;2024-02-04T11:46:52;100051.16;;;7.62;88.20
85511;BME280;75921;51.616;11.880;2024-02-04T11:49:24;100038.38;;;7.56;88.66
85511;BME280;75921;51.616;11.880;2024-02-04T11:51:51;100037.78;;;7.36;89.42
85511;BME280;75921;51.616;11.880;2024-02-04T11:54:16;100068.28;;;7.61;88.29
85511;BME280;75921;51.616;11.880;2024-02-04T11:56:45;100054.34;;;7.57;87.75
85511;BME280;75921;51.616;11.880;2024-02-04T11:59:11;100064.13;;;7.74;85.49
85511;BME280;75921;51.616;11.880;2024-02-04T12:01:38;100066.59;;;7.52;88.31
85511;BME280;75921;51.616;11.880;2024-02-04T12:04:15;100059.88;;;7.56;87.69
85511;BME280;75921;51.616;11.880;2024-02-04T12:06:42;100055.22;;;7.66;85.77
85511;BME280;75921;51.616;11.880;2024-02-04T12:09:08;100056.41;;;7.71;84.67
85511;BME280;75921;51.616;11.880;2024-02-04T12:11:37;100048.34;;;7.71;83.03
85511;BME280;75921;51.616;11.880;2024-02-04T12:14:07;100037.03;;;7.60;85.30
85511;BME280;75921;51.616;11.880;2024-02-04T12:16:35;100035.19;;;7.60;85.37
85511;BME280;75921;51.616;11.880;2024-02-04T12:19:04;100020.06;;;7.67;84.75
85511;BME280;75921;51.616;11.880;2024-02-04T12:21:30;100021.63;;;7.78;83.81
85511;BME280;75921;51.616;11.880;2024-02-04T12:23:56;100003.28;;;7.65;85.30
85511;BME280;75921;51.616;11.880;2024-02-04T12:26:22;100005.84;;;7.75;84.78
85511;BME280;75921;51.616;11.880;2024-02-04T12:28:48;99997.41;;;7.70;85.46
85511;BME280;75921;51.616;11.880;2024-02-04T12:31:21;99996.41;;;7.71;85.43
85511;BME280;75921;51.616;11.880;2024-02-04T12:33:54;99994.88;;;7.68;83.37
85511;BME280;75921;51.616;11.880;2024-02-04T12:36:20;100008.16;;;7.70;85.14
85511;BME280;75921;51.616;11.880;2024-02-04T12:39:02;100015.75;;;7.82;83.80
85511;BME280;75921;51.616;11.880;2024-02-04T12:41:28;100013.91;;;7.83;82.85
85511;BME280;75921;51.616;11.880;2024-02-04T12:43:58;100006.00;;;7.73;82.98
85511;BME280;75921;51.616;11.880;2024-02-04T12:46:26;100028.13;;;7.59;84.81
85511;BME280;75921;51.616;11.880;2024-02-04T12:48:56;100020.47;;;7.80;81.72
85511;BME280;75921;51.616;11.880;2024-02-04T12:51:29;100022.31;;;7.72;82.32
85511;BME280;75921;51.616;11.880;2024-02-04T12:54:08;100017.75;;;7.72;83.69